createdAt,value
2017-10-26T00:01:38.902Z,99.90
2017-10-26T00:04:06.667Z,99.90
2017-10-26T00:06:34.494Z,99.90
2017-10-26T00:09:03.025Z,99.90
2017-10-26T00:11:30.787Z,99.90
2017-10-26T00:13:58.615Z,99.90
2017-10-26T00:16:26.380Z,99.90
2017-10-26T00:18:54.136Z,99.90
2017-10-26T00:21:21.956Z,99.90
2017-10-26T00:23:49.725Z,99.90
2017-10-26T00:26:17.488Z,99.90
2017-10-26T00:28:45.308Z,99.90
2017-10-26T00:31:13.067Z,99.90
2017-10-26T00:33:40.831Z,99.90
2017-10-26T00:36:08.647Z,99.90
2017-10-26T00:38:37.167Z,99.90
2017-10-26T00:41:04.928Z,99.90
2017-10-26T00:43:32.745Z,99.90
2017-10-26T00:46:00.503Z,99.90
2017-10-26T00:48:28.262Z,99.90
2017-10-26T00:50:56.089Z,99.90
2017-10-26T00:53:23.842Z,99.90
2017-10-26T00:55:51.610Z,99.90
2017-10-26T00:58:19.444Z,99.90
2017-10-26T01:00:47.207Z,99.90
2017-10-26T01:03:14.969Z,99.90
2017-10-26T01:05:42.791Z,99.90
2017-10-26T01:08:10.552Z,99.90
2017-10-26T01:10:38.408Z,99.90
2017-10-26T01:13:06.232Z,99.90
2017-10-26T01:15:33.991Z,99.90
2017-10-26T01:18:01.772Z,99.90
2017-10-26T01:20:29.594Z,99.90
2017-10-26T01:22:58.124Z,99.90
2017-10-26T01:25:25.883Z,99.90
2017-10-26T01:27:53.707Z,99.90
2017-10-26T01:30:21.492Z,99.90
2017-10-26T01:32:50.028Z,99.90
2017-10-26T01:35:18.095Z,99.90
2017-10-26T01:37:46.635Z,99.90
2017-10-26T01:40:14.404Z,99.90
2017-10-26T01:42:42.224Z,99.90
2017-10-26T01:45:09.987Z,99.90
2017-10-26T01:47:37.743Z,99.90
2017-10-26T01:50:06.332Z,99.90
2017-10-26T01:52:34.114Z,99.90
2017-10-26T01:55:01.872Z,99.90
2017-10-26T01:57:29.706Z,99.90
2017-10-26T01:59:58.232Z,99.90
2017-10-26T02:02:25.996Z,99.90
2017-10-26T02:04:53.822Z,99.90
2017-10-26T02:07:21.608Z,99.90
2017-10-26T02:09:49.386Z,99.90
2017-10-26T02:12:17.208Z,99.90
2017-10-26T02:14:44.997Z,99.90
2017-10-26T02:17:12.817Z,99.90
2017-10-26T02:19:41.414Z,99.90
2017-10-26T02:22:09.175Z,99.90
2017-10-26T02:24:36.947Z,99.90
2017-10-26T02:27:04.773Z,99.90
2017-10-26T02:29:44.340Z,99.90
2017-10-26T02:32:12.155Z,99.90
2017-10-26T02:34:39.916Z,99.90
2017-10-26T02:37:07.688Z,99.90
2017-10-26T02:39:35.519Z,99.90
2017-10-26T02:42:04.053Z,99.90
2017-10-26T02:44:32.585Z,99.90
2017-10-26T02:47:00.413Z,99.90
2017-10-26T02:49:28.186Z,99.90
2017-10-26T02:51:55.960Z,99.90
2017-10-26T02:54:23.808Z,99.90
2017-10-26T02:56:51.558Z,99.90
2017-10-26T02:59:19.320Z,99.90
2017-10-26T03:01:47.144Z,99.90
2017-10-26T03:04:14.909Z,99.90
2017-10-26T03:06:42.679Z,99.90
2017-10-26T03:09:10.498Z,99.90
2017-10-26T03:11:38.261Z,99.90
2017-10-26T03:14:06.019Z,99.90
2017-10-26T03:16:33.841Z,99.90
2017-10-26T03:19:02.374Z,99.90
2017-10-26T03:21:30.132Z,99.90
2017-10-26T03:23:57.957Z,99.90
2017-10-26T03:26:25.717Z,99.90
2017-10-26T03:28:54.240Z,99.90
2017-10-26T03:31:22.064Z,99.90
2017-10-26T03:33:49.826Z,99.90
2017-10-26T03:36:17.588Z,99.90
2017-10-26T03:38:45.412Z,99.90
2017-10-26T03:41:13.169Z,99.90
2017-10-26T03:43:40.925Z,99.90
2017-10-26T03:46:08.744Z,99.90
2017-10-26T03:48:36.504Z,99.90
2017-10-26T03:51:04.267Z,99.90
2017-10-26T03:53:32.084Z,99.90
2017-10-26T03:55:59.847Z,99.90
2017-10-26T03:58:27.602Z,99.90
2017-10-26T04:00:55.421Z,99.90
2017-10-26T04:03:23.192Z,99.90
2017-10-26T04:05:50.948Z,99.90
2017-10-26T04:08:18.771Z,99.90
2017-10-26T04:10:46.524Z,99.90
2017-10-26T04:13:14.281Z,99.90
2017-10-26T04:15:42.121Z,99.90
2017-10-26T04:18:09.897Z,99.90
2017-10-26T04:20:37.655Z,99.90
2017-10-26T04:23:05.474Z,99.90
2017-10-26T04:25:33.240Z,99.90
2017-10-26T04:28:01.003Z,99.90
2017-10-26T04:30:28.829Z,99.90
2017-10-26T04:32:56.599Z,99.90
2017-10-26T04:35:25.133Z,99.90
2017-10-26T04:37:52.961Z,99.90
2017-10-26T04:40:21.243Z,99.90
2017-10-26T04:42:49.020Z,99.90
2017-10-26T04:45:16.850Z,99.90
2017-10-26T04:47:45.381Z,99.90
2017-10-26T04:50:13.140Z,99.90
2017-10-26T04:52:41.727Z,99.90
2017-10-26T04:55:09.484Z,99.90
2017-10-26T04:57:38.024Z,99.90
2017-10-26T05:00:05.844Z,99.90
2017-10-26T05:02:34.485Z,99.90
2017-10-26T05:05:02.239Z,99.90
2017-10-26T05:07:30.061Z,99.90
2017-10-26T05:09:57.844Z,99.90
2017-10-26T05:12:26.367Z,99.90
2017-10-26T05:14:54.207Z,99.90
2017-10-26T05:17:21.966Z,99.90
2017-10-26T05:19:49.725Z,99.90
2017-10-26T05:22:17.808Z,99.90
2017-10-26T05:24:45.579Z,99.90
2017-10-26T05:27:13.583Z,99.90
2017-10-26T05:29:41.400Z,99.90
2017-10-26T05:32:09.168Z,99.90
2017-10-26T05:34:36.948Z,99.90
2017-10-26T05:37:05.133Z,99.90
2017-10-26T05:39:32.917Z,99.90
2017-10-26T05:42:01.648Z,99.90
2017-10-26T05:44:29.539Z,99.90
2017-10-26T05:46:57.311Z,99.90
2017-10-26T05:49:25.113Z,99.90
2017-10-26T05:51:52.935Z,99.90
2017-10-26T05:54:20.696Z,99.90
2017-10-26T05:56:48.462Z,99.90
2017-10-26T05:59:16.282Z,99.90
2017-10-26T06:01:44.041Z,99.90
2017-10-26T06:04:11.804Z,99.90
2017-10-26T06:06:39.635Z,99.90
2017-10-26T06:09:08.164Z,99.90
2017-10-26T06:11:35.939Z,99.90
2017-10-26T06:14:03.756Z,99.90
2017-10-26T06:16:31.527Z,99.90
2017-10-26T06:18:59.289Z,99.90
2017-10-26T06:21:27.112Z,99.90
2017-10-26T06:23:54.873Z,99.90
2017-10-26T06:26:22.637Z,99.90
2017-10-26T06:28:50.459Z,99.90
2017-10-26T06:31:18.219Z,99.90
2017-10-26T06:33:45.976Z,99.90
2017-10-26T06:36:13.792Z,99.90
2017-10-26T06:38:42.315Z,99.90
2017-10-26T06:41:10.072Z,99.90
2017-10-26T06:43:37.891Z,99.90
2017-10-26T06:46:06.415Z,99.90
2017-10-26T06:48:34.174Z,99.90
2017-10-26T06:51:01.989Z,99.90
2017-10-26T06:53:29.773Z,99.90
2017-10-26T06:55:58.303Z,99.90
2017-10-26T06:58:26.128Z,99.90
2017-10-26T07:00:53.888Z,99.90
2017-10-26T07:03:21.648Z,99.90
2017-10-26T07:05:49.489Z,99.90
2017-10-26T07:08:18.016Z,99.90
2017-10-26T07:10:45.773Z,99.90
2017-10-26T07:13:13.587Z,96.20
2017-10-26T07:15:41.343Z,92.20
2017-10-26T07:18:09.100Z,88.40
2017-10-26T07:20:36.919Z,82.00
2017-10-26T07:23:04.681Z,71.30
2017-10-26T07:25:32.482Z,74.50
2017-10-26T07:28:00.303Z,80.60
2017-10-26T07:30:28.066Z,89.40
2017-10-26T07:32:55.824Z,84.70
2017-10-26T07:35:23.636Z,73.40
2017-10-26T07:37:51.396Z,66.70
2017-10-26T07:40:19.174Z,56.10
2017-10-26T07:42:47.756Z,57.40
2017-10-26T07:45:16.279Z,63.00
2017-10-26T07:47:44.032Z,63.00
2017-10-26T07:50:11.869Z,70.40
2017-10-26T07:52:40.391Z,85.40
2017-10-26T07:55:08.188Z,85.20
2017-10-26T07:57:36.055Z,88.90
2017-10-26T08:00:03.828Z,92.60
2017-10-26T08:02:32.351Z,97.50
2017-10-26T08:05:00.196Z,97.50
2017-10-26T08:07:27.964Z,88.70
2017-10-26T08:09:55.725Z,72.60
2017-10-26T08:12:23.560Z,57.00
2017-10-26T08:14:52.099Z,45.60
2017-10-26T08:17:19.898Z,45.50
2017-10-26T08:19:48.581Z,41.10
2017-10-26T08:22:18.068Z,37.90
2017-10-26T08:24:45.832Z,38.40
2017-10-26T08:27:13.672Z,39.10
2017-10-26T08:29:41.431Z,43.40
2017-10-26T08:32:09.195Z,42.20
2017-10-26T08:34:37.065Z,42.30
2017-10-26T08:37:04.842Z,47.10
2017-10-26T08:39:32.600Z,51.60
2017-10-26T08:42:00.424Z,58.80
2017-10-26T08:44:28.176Z,67.70
2017-10-26T08:46:55.935Z,66.20
2017-10-26T08:49:23.796Z,70.10
2017-10-26T08:51:51.547Z,76.10
2017-10-26T08:54:20.068Z,74.20
2017-10-26T08:56:47.882Z,74.10
2017-10-26T08:59:16.410Z,76.90
2017-10-26T09:01:44.182Z,76.90
2017-10-26T09:04:12.182Z,78.70
2017-10-26T09:06:40.718Z,70.40
2017-10-26T09:09:08.532Z,70.40
2017-10-26T09:11:37.119Z,67.30
2017-10-26T09:14:05.649Z,68.00
2017-10-26T09:16:33.427Z,68.10
2017-10-26T09:19:01.286Z,67.80
2017-10-26T09:21:29.044Z,72.60
2017-10-26T09:23:56.804Z,68.50
2017-10-26T09:26:24.639Z,68.10
2017-10-26T09:28:52.397Z,68.40
2017-10-26T09:31:20.156Z,62.80
2017-10-26T09:33:47.969Z,62.70
2017-10-26T09:36:15.737Z,61.80
2017-10-26T09:38:44.108Z,60.00
2017-10-26T09:41:11.919Z,62.50
2017-10-26T09:43:39.680Z,64.90
2017-10-26T09:46:07.444Z,62.60
2017-10-26T09:48:35.260Z,68.90
2017-10-26T09:51:03.023Z,64.10
2017-10-26T09:53:30.816Z,64.50
2017-10-26T09:55:58.636Z,67.80
2017-10-26T09:58:26.399Z,64.60
2017-10-26T10:00:54.176Z,62.70
2017-10-26T10:03:22.004Z,59.60
2017-10-26T10:05:49.772Z,63.10
2017-10-26T10:08:17.547Z,62.20
2017-10-26T10:10:45.365Z,62.90
2017-10-26T10:13:13.124Z,62.00
2017-10-26T10:15:40.879Z,63.30
2017-10-26T10:18:08.696Z,65.50
2017-10-26T10:20:36.456Z,66.20
2017-10-26T10:23:04.212Z,66.00
2017-10-26T10:25:32.023Z,67.50
2017-10-26T10:27:59.798Z,67.70
2017-10-26T10:30:27.580Z,71.30
2017-10-26T10:32:55.435Z,68.00
2017-10-26T10:35:23.194Z,66.70
2017-10-26T10:37:50.962Z,63.00
2017-10-26T10:40:18.784Z,65.10
2017-10-26T10:42:47.300Z,65.70
2017-10-26T10:45:15.060Z,64.80
2017-10-26T10:47:42.908Z,69.30
2017-10-26T10:50:10.672Z,65.10
2017-10-26T10:52:38.431Z,63.50
2017-10-26T10:55:06.255Z,65.00
2017-10-26T10:57:34.192Z,69.60
2017-10-26T11:00:07.721Z,63.60
2017-10-26T11:02:35.480Z,64.10
2017-10-26T11:05:03.236Z,66.80
2017-10-26T11:07:31.089Z,63.50
2017-10-26T11:09:58.856Z,63.60
2017-10-26T11:12:26.624Z,63.70
2017-10-26T11:14:54.452Z,63.10
2017-10-26T11:17:22.218Z,62.90
2017-10-26T11:19:49.984Z,63.40
2017-10-26T11:22:17.803Z,64.20
2017-10-26T11:24:46.324Z,67.50
2017-10-26T11:27:14.085Z,67.50
2017-10-26T11:29:41.903Z,70.30
2017-10-26T11:32:10.448Z,68.20
2017-10-26T11:34:38.221Z,68.40
2017-10-26T11:37:06.060Z,66.60
2017-10-26T11:39:33.815Z,64.50
2017-10-26T11:42:01.574Z,64.70
2017-10-26T11:44:29.383Z,66.40
2017-10-26T11:46:57.926Z,65.60
2017-10-26T11:49:25.704Z,65.50
2017-10-26T11:51:53.527Z,63.80
2017-10-26T11:54:21.320Z,65.90
2017-10-26T11:56:49.107Z,64.90
2017-10-26T11:59:16.936Z,64.10
2017-10-26T12:01:44.696Z,64.80
2017-10-26T12:04:12.476Z,64.40
2017-10-26T12:06:40.294Z,64.00
2017-10-26T12:09:08.060Z,65.70
2017-10-26T12:11:36.012Z,65.50
2017-10-26T12:14:03.835Z,64.00
2017-10-26T12:16:31.597Z,61.50
2017-10-26T12:18:59.362Z,61.10
2017-10-26T12:21:27.181Z,62.10
2017-10-26T12:23:54.944Z,63.30
2017-10-26T12:26:22.699Z,62.50
2017-10-26T12:28:50.517Z,61.00
2017-10-26T12:31:18.273Z,62.70
2017-10-26T12:33:46.040Z,62.80
2017-10-26T12:36:14.020Z,67.10
2017-10-26T12:38:42.555Z,61.00
2017-10-26T12:41:10.526Z,61.00
2017-10-26T12:43:38.344Z,63.80
2017-10-26T12:46:06.101Z,59.20
2017-10-26T12:48:34.636Z,58.90
2017-10-26T12:51:02.447Z,58.90
2017-10-26T12:53:30.967Z,59.00
2017-10-26T12:55:59.492Z,59.00
2017-10-26T12:58:28.124Z,60.70
2017-10-26T13:00:55.881Z,60.70
2017-10-26T13:03:23.641Z,61.50
2017-10-26T13:05:51.484Z,59.70
2017-10-26T13:08:19.241Z,60.60
2017-10-26T13:10:46.996Z,63.20
2017-10-26T13:13:15.665Z,62.70
2017-10-26T13:15:44.192Z,60.10
2017-10-26T13:18:11.979Z,60.10
2017-10-26T13:20:39.801Z,60.70
2017-10-26T13:23:07.557Z,61.20
2017-10-26T13:25:35.308Z,63.50
2017-10-26T13:28:03.890Z,61.00
2017-10-26T13:30:31.647Z,61.10
2017-10-26T13:33:00.169Z,62.60
2017-10-26T13:35:27.981Z,62.60
2017-10-26T13:37:56.520Z,62.70
2017-10-26T13:40:24.308Z,62.70
2017-10-26T13:42:52.265Z,63.70
2017-10-26T13:45:20.020Z,64.60
2017-10-26T13:47:47.807Z,64.40
2017-10-26T13:50:16.380Z,63.40
2017-10-26T13:52:44.216Z,63.40
2017-10-26T13:55:11.971Z,64.00
2017-10-26T13:57:39.797Z,68.70
2017-10-26T14:00:07.585Z,65.80
2017-10-26T14:02:35.355Z,65.90
2017-10-26T14:05:03.176Z,65.10
2017-10-26T14:07:31.411Z,65.50
2017-10-26T14:09:59.178Z,66.10
2017-10-26T14:12:27.779Z,66.90
2017-10-26T14:14:56.309Z,70.00
2017-10-26T14:17:24.074Z,70.60
2017-10-26T14:19:51.915Z,71.20
2017-10-26T14:22:19.673Z,71.70
2017-10-26T14:24:47.430Z,71.60
2017-10-26T14:27:15.266Z,69.50
2017-10-26T14:29:43.793Z,69.90
2017-10-26T14:32:11.552Z,70.00
2017-10-26T14:34:39.369Z,71.70
2017-10-26T14:37:07.133Z,69.50
2017-10-26T14:39:34.892Z,71.40
2017-10-26T14:42:02.713Z,68.60
2017-10-26T14:44:30.478Z,67.40
2017-10-26T14:46:58.358Z,69.20
2017-10-26T14:49:26.175Z,66.50
2017-10-26T14:51:53.938Z,69.70
2017-10-26T14:54:21.694Z,67.70
2017-10-26T14:56:49.515Z,67.10
2017-10-26T14:59:17.274Z,67.70
2017-10-26T15:01:45.033Z,69.90
2017-10-26T15:04:12.871Z,68.70
2017-10-26T15:06:40.634Z,68.00
2017-10-26T15:09:08.399Z,67.50
2017-10-26T15:11:36.219Z,69.50
2017-10-26T15:14:04.924Z,69.70
2017-10-26T15:16:32.683Z,69.70
2017-10-26T15:19:00.557Z,71.10
2017-10-26T15:21:28.400Z,75.40
2017-10-26T15:23:56.200Z,72.60
2017-10-26T15:26:24.043Z,73.40
2017-10-26T15:28:51.820Z,78.60
2017-10-26T15:31:19.611Z,75.30
2017-10-26T15:33:47.446Z,76.00
2017-10-26T15:36:15.204Z,79.40
2017-10-26T15:38:43.000Z,77.40
2017-10-26T15:41:10.860Z,78.00
2017-10-26T15:43:38.633Z,78.70
2017-10-26T15:46:06.435Z,78.40
2017-10-26T15:48:34.291Z,81.40
2017-10-26T15:51:02.107Z,84.20
2017-10-26T15:53:29.879Z,84.10
2017-10-26T15:55:57.720Z,84.10
2017-10-26T15:58:25.482Z,84.80
2017-10-26T16:00:53.251Z,84.70
2017-10-26T16:03:21.099Z,85.40
2017-10-26T16:05:49.667Z,89.70
2017-10-26T16:08:17.452Z,89.70
2017-10-26T16:10:45.314Z,90.10
2017-10-26T16:13:13.169Z,92.20
2017-10-26T16:15:41.727Z,92.30
2017-10-26T16:18:09.560Z,92.30
2017-10-26T16:20:38.108Z,95.40
2017-10-26T16:23:05.899Z,95.40
2017-10-26T16:25:34.727Z,95.40
2017-10-26T16:28:02.507Z,95.30
2017-10-26T16:30:30.296Z,95.70
2017-10-26T16:32:58.117Z,95.50
2017-10-26T16:35:25.888Z,96.20
2017-10-26T16:37:55.522Z,97.50
2017-10-26T16:40:23.344Z,97.50
2017-10-26T16:42:51.105Z,98.40
2017-10-26T16:45:18.864Z,99.90
2017-10-26T16:47:46.697Z,99.90
2017-10-26T16:50:15.226Z,99.90
2017-10-26T16:52:42.987Z,99.90
2017-10-26T16:55:10.816Z,99.90
2017-10-26T16:57:38.590Z,99.90
2017-10-26T17:00:06.377Z,99.90
2017-10-26T17:02:35.308Z,99.90
2017-10-26T17:05:03.834Z,99.90
2017-10-26T17:07:31.591Z,99.90
2017-10-26T17:09:59.479Z,99.90
2017-10-26T17:12:27.771Z,99.90
2017-10-26T17:14:55.528Z,99.90
2017-10-26T17:17:23.411Z,99.90
2017-10-26T17:19:51.965Z,99.90
2017-10-26T17:22:19.728Z,99.90
2017-10-26T17:24:47.548Z,99.90
2017-10-26T17:27:15.307Z,99.90
2017-10-26T17:29:43.063Z,99.90
2017-10-26T17:32:10.915Z,99.90
2017-10-26T17:34:39.444Z,99.90
2017-10-26T17:37:07.208Z,99.90
2017-10-26T17:39:35.040Z,99.90
2017-10-26T17:42:02.809Z,99.90
2017-10-26T17:44:30.574Z,99.90
2017-10-26T17:46:58.585Z,99.90
2017-10-26T17:49:26.352Z,99.90
2017-10-26T17:51:54.116Z,99.90
2017-10-26T17:54:21.936Z,99.90
2017-10-26T17:56:49.701Z,99.90
2017-10-26T17:59:17.488Z,99.90
2017-10-26T18:01:45.316Z,99.90
2017-10-26T18:04:13.913Z,99.90
2017-10-26T18:06:41.705Z,99.90
2017-10-26T18:09:13.796Z,99.90
2017-10-26T18:11:41.580Z,99.90
2017-10-26T18:14:09.494Z,99.90
2017-10-26T18:16:37.333Z,99.90
2017-10-26T18:19:05.097Z,99.90
2017-10-26T18:21:33.706Z,99.90
2017-10-26T18:24:01.528Z,99.90
2017-10-26T18:26:29.425Z,99.90
2017-10-26T18:28:57.290Z,99.90
2017-10-26T18:31:25.229Z,99.90
2017-10-26T18:33:52.992Z,99.90
2017-10-26T18:36:20.751Z,99.90
2017-10-26T18:38:48.576Z,99.90
2017-10-26T18:41:16.343Z,99.90
2017-10-26T18:43:44.101Z,99.90
2017-10-26T18:46:11.925Z,99.90
2017-10-26T18:48:39.692Z,99.90
2017-10-26T18:51:07.459Z,99.90
2017-10-26T18:53:35.281Z,99.90
2017-10-26T18:56:03.048Z,99.90
2017-10-26T18:58:31.571Z,99.90
2017-10-26T19:01:00.163Z,99.90
2017-10-26T19:03:28.691Z,99.90
2017-10-26T19:05:56.456Z,99.90
2017-10-26T19:08:24.280Z,99.90
2017-10-26T19:10:52.044Z,99.90
2017-10-26T19:13:19.804Z,99.90
2017-10-26T19:15:47.635Z,99.90
2017-10-26T19:18:15.397Z,99.90
2017-10-26T19:20:43.163Z,99.90
2017-10-26T19:23:11.001Z,99.90
2017-10-26T19:25:38.772Z,99.90
2017-10-26T19:28:07.315Z,99.90
2017-10-26T19:30:35.138Z,99.90
2017-10-26T19:33:03.676Z,99.90
2017-10-26T19:35:31.464Z,99.90
2017-10-26T19:37:59.296Z,99.90
2017-10-26T19:40:27.072Z,99.90
2017-10-26T19:42:54.833Z,99.90
2017-10-26T19:45:23.419Z,99.90
2017-10-26T19:47:51.190Z,99.90
2017-10-26T19:50:19.363Z,99.90
2017-10-26T19:52:47.183Z,99.90
2017-10-26T19:55:14.942Z,99.90
2017-10-26T19:57:42.726Z,99.90
2017-10-26T20:00:10.548Z,99.90
2017-10-26T20:02:38.313Z,99.90
2017-10-26T20:05:06.127Z,99.90
2017-10-26T20:07:33.954Z,99.90
2017-10-26T20:10:01.720Z,99.90
2017-10-26T20:12:29.484Z,99.90
2017-10-26T20:14:57.354Z,99.90
2017-10-26T20:17:25.119Z,99.90
2017-10-26T20:19:52.897Z,99.90
2017-10-26T20:22:20.715Z,99.90
2017-10-26T20:24:48.480Z,99.90
2017-10-26T20:27:16.238Z,99.90
2017-10-26T20:29:44.057Z,99.90
2017-10-26T20:32:11.820Z,99.90
2017-10-26T20:34:39.586Z,99.90
2017-10-26T20:37:07.439Z,99.90
2017-10-26T20:39:35.202Z,99.90
2017-10-26T20:42:02.962Z,99.90
2017-10-26T20:44:30.788Z,99.90
2017-10-26T20:46:58.553Z,99.90
2017-10-26T20:49:32.011Z,99.90
2017-10-26T20:52:06.784Z,99.90
2017-10-26T20:54:40.341Z,99.90
2017-10-26T20:57:13.735Z,99.90
2017-10-26T20:59:47.991Z,99.90
2017-10-26T21:02:21.340Z,99.90
2017-10-26T21:04:55.668Z,99.90
2017-10-26T21:07:28.991Z,99.90
2017-10-26T21:09:56.810Z,99.90
2017-10-26T21:25:48.324Z,99.90
2017-10-26T21:28:16.091Z,99.90
2017-10-26T21:30:43.867Z,99.90
2017-10-26T21:33:11.696Z,99.90
2017-10-26T21:35:39.500Z,99.90
2017-10-26T21:38:07.259Z,99.90
2017-10-26T21:40:35.083Z,99.90
2017-10-26T21:43:02.848Z,99.90
2017-10-26T21:45:30.611Z,99.90
2017-10-26T21:47:58.434Z,99.90
2017-10-26T21:50:26.234Z,99.90
2017-10-26T21:52:53.995Z,99.90
2017-10-26T21:55:21.817Z,99.90
2017-10-26T21:57:49.581Z,99.90
2017-10-26T22:00:17.336Z,99.90
2017-10-26T22:02:45.155Z,99.90
2017-10-26T22:05:12.924Z,99.90
2017-10-26T22:07:41.692Z,99.90
2017-10-26T22:10:09.507Z,99.90
2017-10-26T22:12:37.278Z,99.90
2017-10-26T22:15:05.055Z,99.90
2017-10-26T22:17:33.642Z,99.90
2017-10-26T22:20:02.167Z,99.90
2017-10-26T22:22:29.925Z,99.90
2017-10-26T22:24:57.790Z,99.90
2017-10-26T22:27:25.545Z,99.90
2017-10-26T22:29:53.307Z,99.90
2017-10-26T22:32:21.128Z,99.90
2017-10-26T22:34:49.651Z,99.90
2017-10-26T22:37:17.410Z,99.90
2017-10-26T22:39:45.250Z,99.90
2017-10-26T22:42:13.003Z,99.90
2017-10-26T22:44:41.528Z,99.90
2017-10-26T22:47:09.352Z,99.90
2017-10-26T22:49:37.891Z,99.90
2017-10-26T22:52:05.647Z,99.90
2017-10-26T22:54:33.459Z,99.90
2017-10-26T22:57:01.695Z,99.90
2017-10-26T22:59:29.453Z,99.90
2017-10-26T23:01:57.293Z,99.90
2017-10-26T23:04:25.060Z,99.90
2017-10-26T23:06:52.828Z,99.90
2017-10-26T23:09:20.646Z,99.90
2017-10-26T23:11:48.405Z,99.90
2017-10-26T23:14:16.162Z,99.90
2017-10-26T23:16:43.984Z,99.90
2017-10-26T23:19:12.009Z,99.90
2017-10-26T23:21:39.810Z,99.90
2017-10-26T23:24:07.659Z,99.90
2017-10-26T23:26:35.425Z,99.90
2017-10-26T23:29:03.200Z,99.90
2017-10-26T23:31:31.141Z,99.90
2017-10-26T23:33:58.907Z,99.90
2017-10-26T23:36:27.435Z,99.90
2017-10-26T23:38:56.039Z,99.90
2017-10-26T23:41:27.953Z,99.90
2017-10-26T23:43:55.809Z,99.90
2017-10-26T23:46:23.596Z,99.90
2017-10-26T23:48:51.356Z,99.90
2017-10-26T23:51:19.181Z,99.90
2017-10-26T23:53:46.947Z,99.90
2017-10-26T23:56:15.472Z,99.90
2017-10-26T23:58:44.097Z,99.90
